sensor_id;sensor_type;location;lat;lon;timestamp;P1;durP1;ratioP1;P2;durP2;ratioP2
2928;SDS011;1474;51.460;7.150;2023-04-07T00:00:41;8.52;;;6.35;;
2928;SDS011;1474;51.460;7.150;2023-04-07T00:03:07;7.95;;;6.40;;
2928;SDS011;1474;51.460;7.150;2023-04-07T00:05:33;8.65;;;5.80;;
2928;SDS011;1474;51.460;7.150;2023-04-07T00:07:59;8.32;;;5.95;;
2928;SDS011;1474;51.460;7.150;2023-04-07T00:10:24;10.40;;;6.25;;
2928;SDS011;1474;51.460;7.150;2023-04-07T00:12:50;9.98;;;7.07;;
2928;SDS011;1474;51.460;7.150;2023-04-07T00:15:16;9.30;;;6.07;;
2928;SDS011;1474;51.460;7.150;2023-04-07T00:17:42;8.30;;;6.00;;
2928;SDS011;1474;51.460;7.150;2023-04-07T00:20:07;8.95;;;5.93;;
2928;SDS011;1474;51.460;7.150;2023-04-07T00:22:33;7.75;;;5.82;;
2928;SDS011;1474;51.460;7.150;2023-04-07T00:24:59;10.43;;;7.55;;
2928;SDS011;1474;51.460;7.150;2023-04-07T00:27:24;8.27;;;5.68;;
2928;SDS011;1474;51.460;7.150;2023-04-07T00:29:50;7.85;;;6.30;;
2928;SDS011;1474;51.460;7.150;2023-04-07T00:32:18;10.73;;;6.82;;
2928;SDS011;1474;51.460;7.150;2023-04-07T00:34:44;9.73;;;6.70;;
2928;SDS011;1474;51.460;7.150;2023-04-07T00:37:10;15.15;;;7.85;;
2928;SDS011;1474;51.460;7.150;2023-04-07T00:39:35;11.45;;;7.75;;
2928;SDS011;1474;51.460;7.150;2023-04-07T00:42:02;8.07;;;6.72;;
2928;SDS011;1474;51.460;7.150;2023-04-07T00:44:29;7.80;;;6.50;;
2928;SDS011;1474;51.460;7.150;2023-04-07T00:46:55;10.60;;;6.47;;
2928;SDS011;1474;51.460;7.150;2023-04-07T00:49:20;11.55;;;6.95;;
2928;SDS011;1474;51.460;7.150;2023-04-07T00:51:46;8.73;;;6.65;;
2928;SDS011;1474;51.460;7.150;2023-04-07T00:54:12;8.55;;;6.72;;
2928;SDS011;1474;51.460;7.150;2023-04-07T00:56:37;10.95;;;7.88;;
2928;SDS011;1474;51.460;7.150;2023-04-07T00:59:03;10.45;;;8.32;;
2928;SDS011;1474;51.460;7.150;2023-04-07T01:01:30;13.68;;;8.70;;
2928;SDS011;1474;51.460;7.150;2023-04-07T01:04:07;10.13;;;7.28;;
2928;SDS011;1474;51.460;7.150;2023-04-07T01:06:41;11.70;;;7.85;;
2928;SDS011;1474;51.460;7.150;2023-04-07T01:09:13;9.13;;;6.85;;
2928;SDS011;1474;51.460;7.150;2023-04-07T01:14:16;11.00;;;7.70;;
2928;SDS011;1474;51.460;7.150;2023-04-07T01:16:45;11.68;;;7.15;;
2928;SDS011;1474;51.460;7.150;2023-04-07T01:21:56;11.00;;;6.70;;
2928;SDS011;1474;51.460;7.150;2023-04-07T01:24:38;10.43;;;7.28;;
2928;SDS011;1474;51.460;7.150;2023-04-07T01:29:59;10.73;;;7.10;;
2928;SDS011;1474;51.460;7.150;2023-04-07T01:32:27;10.15;;;5.93;;
2928;SDS011;1474;51.460;7.150;2023-04-07T01:34:56;10.27;;;7.38;;
2928;SDS011;1474;51.460;7.150;2023-04-07T01:37:23;10.07;;;7.07;;
2928;SDS011;1474;51.460;7.150;2023-04-07T01:39:51;10.25;;;7.28;;
2928;SDS011;1474;51.460;7.150;2023-04-07T01:42:17;9.48;;;6.28;;
2928;SDS011;1474;51.460;7.150;2023-04-07T01:44:44;10.93;;;7.70;;
2928;SDS011;1474;51.460;7.150;2023-04-07T01:47:11;11.63;;;8.32;;
2928;SDS011;1474;51.460;7.150;2023-04-07T01:49:37;10.27;;;7.40;;
2928;SDS011;1474;51.460;7.150;2023-04-07T01:52:04;10.13;;;7.18;;
2928;SDS011;1474;51.460;7.150;2023-04-07T01:54:31;12.98;;;7.50;;
2928;SDS011;1474;51.460;7.150;2023-04-07T01:56:57;11.75;;;8.00;;
2928;SDS011;1474;51.460;7.150;2023-04-07T01:59:23;11.77;;;7.93;;
2928;SDS011;1474;51.460;7.150;2023-04-07T02:01:49;10.68;;;7.47;;
2928;SDS011;1474;51.460;7.150;2023-04-07T02:06:54;12.13;;;8.55;;
2928;SDS011;1474;51.460;7.150;2023-04-07T02:09:23;11.82;;;7.38;;
2928;SDS011;1474;51.460;7.150;2023-04-07T02:11:54;12.50;;;8.32;;
2928;SDS011;1474;51.460;7.150;2023-04-07T02:14:21;14.35;;;8.75;;
2928;SDS011;1474;51.460;7.150;2023-04-07T02:16:48;10.95;;;8.25;;
2928;SDS011;1474;51.460;7.150;2023-04-07T02:19:15;13.80;;;8.98;;
2928;SDS011;1474;51.460;7.150;2023-04-07T02:21:40;15.35;;;8.57;;
2928;SDS011;1474;51.460;7.150;2023-04-07T02:24:08;12.63;;;8.57;;
2928;SDS011;1474;51.460;7.150;2023-04-07T02:26:36;14.63;;;9.50;;
2928;SDS011;1474;51.460;7.150;2023-04-07T02:29:04;14.35;;;9.07;;
2928;SDS011;1474;51.460;7.150;2023-04-07T02:31:30;17.67;;;9.50;;
2928;SDS011;1474;51.460;7.150;2023-04-07T02:33:56;14.10;;;9.82;;
2928;SDS011;1474;51.460;7.150;2023-04-07T02:36:22;14.40;;;9.55;;
2928;SDS011;1474;51.460;7.150;2023-04-07T02:38:47;13.77;;;8.90;;
2928;SDS011;1474;51.460;7.150;2023-04-07T02:41:13;13.85;;;9.20;;
2928;SDS011;1474;51.460;7.150;2023-04-07T02:43:39;17.55;;;9.73;;
2928;SDS011;1474;51.460;7.150;2023-04-07T02:46:05;14.85;;;10.05;;
2928;SDS011;1474;51.460;7.150;2023-04-07T02:48:30;13.30;;;9.82;;
2928;SDS011;1474;51.460;7.150;2023-04-07T02:50:56;15.07;;;10.32;;
2928;SDS011;1474;51.460;7.150;2023-04-07T02:53:22;18.08;;;10.45;;
2928;SDS011;1474;51.460;7.150;2023-04-07T02:55:48;16.60;;;11.05;;
2928;SDS011;1474;51.460;7.150;2023-04-07T02:58:13;19.65;;;10.88;;
2928;SDS011;1474;51.460;7.150;2023-04-07T03:00:39;16.23;;;10.20;;
2928;SDS011;1474;51.460;7.150;2023-04-07T03:03:05;18.20;;;10.50;;
2928;SDS011;1474;51.460;7.150;2023-04-07T03:05:30;15.80;;;9.90;;
2928;SDS011;1474;51.460;7.150;2023-04-07T03:07:56;18.35;;;9.48;;
2928;SDS011;1474;51.460;7.150;2023-04-07T03:10:22;15.65;;;9.68;;
2928;SDS011;1474;51.460;7.150;2023-04-07T03:12:47;17.27;;;10.07;;
2928;SDS011;1474;51.460;7.150;2023-04-07T03:15:13;17.48;;;11.25;;
2928;SDS011;1474;51.460;7.150;2023-04-07T03:17:38;16.33;;;9.52;;
2928;SDS011;1474;51.460;7.150;2023-04-07T03:20:04;17.60;;;10.05;;
2928;SDS011;1474;51.460;7.150;2023-04-07T03:22:31;15.63;;;8.48;;
2928;SDS011;1474;51.460;7.150;2023-04-07T03:24:57;19.55;;;9.73;;
2928;SDS011;1474;51.460;7.150;2023-04-07T03:27:22;19.02;;;10.70;;
2928;SDS011;1474;51.460;7.150;2023-04-07T03:29:48;18.30;;;9.93;;
2928;SDS011;1474;51.460;7.150;2023-04-07T03:32:15;21.67;;;9.93;;
2928;SDS011;1474;51.460;7.150;2023-04-07T03:34:40;21.73;;;10.80;;
2928;SDS011;1474;51.460;7.150;2023-04-07T03:37:06;17.83;;;10.05;;
2928;SDS011;1474;51.460;7.150;2023-04-07T03:39:32;21.38;;;10.25;;
2928;SDS011;1474;51.460;7.150;2023-04-07T03:42:01;21.60;;;11.93;;
2928;SDS011;1474;51.460;7.150;2023-04-07T03:44:27;23.00;;;10.63;;
2928;SDS011;1474;51.460;7.150;2023-04-07T03:46:53;22.80;;;10.73;;
2928;SDS011;1474;51.460;7.150;2023-04-07T03:49:18;22.25;;;11.45;;
2928;SDS011;1474;51.460;7.150;2023-04-07T03:51:44;23.25;;;12.95;;
2928;SDS011;1474;51.460;7.150;2023-04-07T03:54:10;19.80;;;11.13;;
2928;SDS011;1474;51.460;7.150;2023-04-07T03:56:35;20.70;;;10.45;;
2928;SDS011;1474;51.460;7.150;2023-04-07T03:59:01;22.80;;;11.52;;
2928;SDS011;1474;51.460;7.150;2023-04-07T04:01:27;21.13;;;10.35;;
2928;SDS011;1474;51.460;7.150;2023-04-07T04:03:53;21.63;;;12.57;;
2928;SDS011;1474;51.460;7.150;2023-04-07T04:06:18;22.58;;;10.52;;
2928;SDS011;1474;51.460;7.150;2023-04-07T04:08:44;23.23;;;11.98;;
2928;SDS011;1474;51.460;7.150;2023-04-07T04:11:09;23.05;;;10.88;;
2928;SDS011;1474;51.460;7.150;2023-04-07T04:13:35;21.40;;;11.18;;
2928;SDS011;1474;51.460;7.150;2023-04-07T04:16:01;23.77;;;11.05;;
2928;SDS011;1474;51.460;7.150;2023-04-07T04:18:27;21.25;;;11.30;;
2928;SDS011;1474;51.460;7.150;2023-04-07T04:20:52;22.95;;;12.10;;
2928;SDS011;1474;51.460;7.150;2023-04-07T04:23:18;21.80;;;11.38;;
2928;SDS011;1474;51.460;7.150;2023-04-07T04:25:43;27.00;;;11.57;;
2928;SDS011;1474;51.460;7.150;2023-04-07T04:28:09;23.42;;;12.48;;
2928;SDS011;1474;51.460;7.150;2023-04-07T04:30:34;23.25;;;10.82;;
2928;SDS011;1474;51.460;7.150;2023-04-07T04:33:00;21.58;;;11.30;;
2928;SDS011;1474;51.460;7.150;2023-04-07T04:35:27;18.98;;;10.25;;
2928;SDS011;1474;51.460;7.150;2023-04-07T04:37:53;20.45;;;10.25;;
2928;SDS011;1474;51.460;7.150;2023-04-07T04:40:19;21.17;;;10.98;;
2928;SDS011;1474;51.460;7.150;2023-04-07T04:42:45;20.98;;;10.68;;
2928;SDS011;1474;51.460;7.150;2023-04-07T04:45:10;21.85;;;10.52;;
2928;SDS011;1474;51.460;7.150;2023-04-07T04:47:36;22.95;;;9.88;;
2928;SDS011;1474;51.460;7.150;2023-04-07T04:50:03;22.30;;;11.23;;
2928;SDS011;1474;51.460;7.150;2023-04-07T04:52:30;18.60;;;10.02;;
2928;SDS011;1474;51.460;7.150;2023-04-07T04:54:56;20.95;;;9.90;;
2928;SDS011;1474;51.460;7.150;2023-04-07T04:57:21;21.83;;;11.05;;
2928;SDS011;1474;51.460;7.150;2023-04-07T04:59:47;24.63;;;11.45;;
2928;SDS011;1474;51.460;7.150;2023-04-07T05:02:12;21.90;;;10.30;;
2928;SDS011;1474;51.460;7.150;2023-04-07T05:04:38;23.23;;;10.70;;
2928;SDS011;1474;51.460;7.150;2023-04-07T05:07:03;18.80;;;9.90;;
2928;SDS011;1474;51.460;7.150;2023-04-07T05:09:29;20.58;;;11.35;;
2928;SDS011;1474;51.460;7.150;2023-04-07T05:11:55;19.77;;;9.15;;
2928;SDS011;1474;51.460;7.150;2023-04-07T05:14:21;18.02;;;9.82;;
2928;SDS011;1474;51.460;7.150;2023-04-07T05:16:47;23.67;;;11.40;;
2928;SDS011;1474;51.460;7.150;2023-04-07T05:19:13;24.15;;;11.38;;
2928;SDS011;1474;51.460;7.150;2023-04-07T05:21:39;16.13;;;10.05;;
2928;SDS011;1474;51.460;7.150;2023-04-07T05:24:05;19.20;;;10.95;;
2928;SDS011;1474;51.460;7.150;2023-04-07T05:26:30;21.80;;;9.95;;
2928;SDS011;1474;51.460;7.150;2023-04-07T05:28:56;19.83;;;10.00;;
2928;SDS011;1474;51.460;7.150;2023-04-07T05:31:21;17.85;;;9.43;;
2928;SDS011;1474;51.460;7.150;2023-04-07T05:33:47;20.55;;;9.95;;
2928;SDS011;1474;51.460;7.150;2023-04-07T05:36:13;17.27;;;10.07;;
2928;SDS011;1474;51.460;7.150;2023-04-07T05:38:38;19.15;;;10.00;;
2928;SDS011;1474;51.460;7.150;2023-04-07T05:41:04;16.10;;;9.13;;
2928;SDS011;1474;51.460;7.150;2023-04-07T05:43:30;16.90;;;9.68;;
2928;SDS011;1474;51.460;7.150;2023-04-07T05:45:56;16.55;;;8.90;;
2928;SDS011;1474;51.460;7.150;2023-04-07T05:48:21;19.13;;;8.68;;
2928;SDS011;1474;51.460;7.150;2023-04-07T05:50:47;15.75;;;7.82;;
2928;SDS011;1474;51.460;7.150;2023-04-07T05:53:13;17.98;;;8.25;;
2928;SDS011;1474;51.460;7.150;2023-04-07T05:55:41;16.77;;;7.78;;
2928;SDS011;1474;51.460;7.150;2023-04-07T05:58:07;12.80;;;6.63;;
2928;SDS011;1474;51.460;7.150;2023-04-07T06:00:33;13.23;;;6.95;;
2928;SDS011;1474;51.460;7.150;2023-04-07T06:02:58;13.25;;;5.97;;
2928;SDS011;1474;51.460;7.150;2023-04-07T06:05:25;12.07;;;5.72;;
2928;SDS011;1474;51.460;7.150;2023-04-07T06:07:51;13.18;;;6.57;;
2928;SDS011;1474;51.460;7.150;2023-04-07T06:10:18;9.60;;;5.38;;
2928;SDS011;1474;51.460;7.150;2023-04-07T06:12:44;15.43;;;6.78;;
2928;SDS011;1474;51.460;7.150;2023-04-07T06:15:09;10.95;;;5.32;;
2928;SDS011;1474;51.460;7.150;2023-04-07T06:17:35;12.15;;;6.00;;
2928;SDS011;1474;51.460;7.150;2023-04-07T06:20:01;12.13;;;6.22;;
2928;SDS011;1474;51.460;7.150;2023-04-07T06:22:26;10.82;;;5.80;;
2928;SDS011;1474;51.460;7.150;2023-04-07T06:24:52;10.98;;;5.80;;
2928;SDS011;1474;51.460;7.150;2023-04-07T06:27:17;10.60;;;5.85;;
2928;SDS011;1474;51.460;7.150;2023-04-07T06:29:43;10.63;;;5.32;;
2928;SDS011;1474;51.460;7.150;2023-04-07T06:32:09;11.50;;;5.57;;
2928;SDS011;1474;51.460;7.150;2023-04-07T06:34:34;12.57;;;6.40;;
2928;SDS011;1474;51.460;7.150;2023-04-07T06:37:00;9.38;;;5.63;;
2928;SDS011;1474;51.460;7.150;2023-04-07T06:39:26;7.88;;;4.50;;
2928;SDS011;1474;51.460;7.150;2023-04-07T06:41:52;11.50;;;6.85;;
2928;SDS011;1474;51.460;7.150;2023-04-07T06:44:17;9.07;;;5.90;;
2928;SDS011;1474;51.460;7.150;2023-04-07T06:46:43;13.50;;;6.55;;
2928;SDS011;1474;51.460;7.150;2023-04-07T06:49:11;10.40;;;5.72;;
2928;SDS011;1474;51.460;7.150;2023-04-07T06:51:37;11.73;;;6.03;;
2928;SDS011;1474;51.460;7.150;2023-04-07T06:54:02;13.60;;;6.30;;
2928;SDS011;1474;51.460;7.150;2023-04-07T06:56:29;10.20;;;5.72;;
2928;SDS011;1474;51.460;7.150;2023-04-07T06:58:55;15.43;;;7.05;;
2928;SDS011;1474;51.460;7.150;2023-04-07T07:01:20;13.25;;;7.47;;
2928;SDS011;1474;51.460;7.150;2023-04-07T07:03:46;12.38;;;6.25;;
2928;SDS011;1474;51.460;7.150;2023-04-07T07:06:12;13.93;;;6.68;;
2928;SDS011;1474;51.460;7.150;2023-04-07T07:08:37;15.38;;;7.15;;
2928;SDS011;1474;51.460;7.150;2023-04-07T07:11:03;18.02;;;6.97;;
2928;SDS011;1474;51.460;7.150;2023-04-07T07:13:29;16.40;;;6.72;;
2928;SDS011;1474;51.460;7.150;2023-04-07T07:15:55;13.15;;;8.05;;
2928;SDS011;1474;51.460;7.150;2023-04-07T07:18:20;14.05;;;6.60;;
2928;SDS011;1474;51.460;7.150;2023-04-07T07:20:46;12.68;;;6.88;;
2928;SDS011;1474;51.460;7.150;2023-04-07T07:23:12;12.07;;;6.05;;
2928;SDS011;1474;51.460;7.150;2023-04-07T07:25:37;15.07;;;7.88;;
2928;SDS011;1474;51.460;7.150;2023-04-07T07:28:03;13.60;;;6.43;;
2928;SDS011;1474;51.460;7.150;2023-04-07T07:30:29;13.30;;;6.30;;
2928;SDS011;1474;51.460;7.150;2023-04-07T07:32:55;12.75;;;6.00;;
2928;SDS011;1474;51.460;7.150;2023-04-07T07:35:21;12.75;;;6.20;;
2928;SDS011;1474;51.460;7.150;2023-04-07T07:37:49;15.48;;;6.97;;
2928;SDS011;1474;51.460;7.150;2023-04-07T07:40:15;13.15;;;6.68;;
2928;SDS011;1474;51.460;7.150;2023-04-07T07:42:41;12.60;;;7.05;;
2928;SDS011;1474;51.460;7.150;2023-04-07T07:45:06;9.70;;;6.25;;
2928;SDS011;1474;51.460;7.150;2023-04-07T07:47:32;13.15;;;5.65;;
2928;SDS011;1474;51.460;7.150;2023-04-07T07:49:59;11.45;;;5.80;;
2928;SDS011;1474;51.460;7.150;2023-04-07T07:52:25;13.48;;;7.25;;
2928;SDS011;1474;51.460;7.150;2023-04-07T07:54:51;16.27;;;7.57;;
2928;SDS011;1474;51.460;7.150;2023-04-07T07:57:16;16.15;;;7.07;;
2928;SDS011;1474;51.460;7.150;2023-04-07T07:59:42;13.07;;;6.63;;
2928;SDS011;1474;51.460;7.150;2023-04-07T08:02:08;14.18;;;8.10;;
2928;SDS011;1474;51.460;7.150;2023-04-07T08:04:35;15.63;;;7.68;;
2928;SDS011;1474;51.460;7.150;2023-04-07T08:07:01;12.63;;;6.50;;
2928;SDS011;1474;51.460;7.150;2023-04-07T08:09:27;16.50;;;7.55;;
2928;SDS011;1474;51.460;7.150;2023-04-07T08:11:53;13.88;;;7.03;;
2928;SDS011;1474;51.460;7.150;2023-04-07T08:14:18;13.13;;;7.05;;
2928;SDS011;1474;51.460;7.150;2023-04-07T08:16:44;11.85;;;6.47;;
2928;SDS011;1474;51.460;7.150;2023-04-07T08:19:11;14.20;;;7.00;;
2928;SDS011;1474;51.460;7.150;2023-04-07T08:21:37;11.23;;;7.00;;
2928;SDS011;1474;51.460;7.150;2023-04-07T08:24:03;15.23;;;7.18;;
2928;SDS011;1474;51.460;7.150;2023-04-07T08:26:29;14.57;;;8.20;;
2928;SDS011;1474;51.460;7.150;2023-04-07T08:28:55;14.15;;;7.00;;
2928;SDS011;1474;51.460;7.150;2023-04-07T08:31:22;12.00;;;7.30;;
2928;SDS011;1474;51.460;7.150;2023-04-07T08:33:48;12.65;;;6.63;;
2928;SDS011;1474;51.460;7.150;2023-04-07T08:36:17;11.73;;;6.70;;
2928;SDS011;1474;51.460;7.150;2023-04-07T08:38:46;15.52;;;7.25;;
2928;SDS011;1474;51.460;7.150;2023-04-07T08:41:12;10.13;;;6.78;;
2928;SDS011;1474;51.460;7.150;2023-04-07T08:43:42;12.45;;;7.05;;
2928;SDS011;1474;51.460;7.150;2023-04-07T08:46:10;15.73;;;6.72;;
2928;SDS011;1474;51.460;7.150;2023-04-07T08:48:37;13.82;;;5.40;;
2928;SDS011;1474;51.460;7.150;2023-04-07T08:51:06;9.25;;;6.47;;
2928;SDS011;1474;51.460;7.150;2023-04-07T08:53:42;12.90;;;6.47;;
2928;SDS011;1474;51.460;7.150;2023-04-07T08:56:14;12.13;;;6.27;;
2928;SDS011;1474;51.460;7.150;2023-04-07T08:58:41;7.40;;;5.22;;
2928;SDS011;1474;51.460;7.150;2023-04-07T09:01:08;14.98;;;5.72;;
2928;SDS011;1474;51.460;7.150;2023-04-07T09:03:34;12.38;;;6.00;;
2928;SDS011;1474;51.460;7.150;2023-04-07T09:06:00;11.52;;;5.78;;
2928;SDS011;1474;51.460;7.150;2023-04-07T09:08:26;8.90;;;5.30;;
2928;SDS011;1474;51.460;7.150;2023-04-07T09:10:53;11.60;;;6.10;;
2928;SDS011;1474;51.460;7.150;2023-04-07T09:13:19;10.20;;;5.57;;
2928;SDS011;1474;51.460;7.150;2023-04-07T09:15:44;13.30;;;5.95;;
2928;SDS011;1474;51.460;7.150;2023-04-07T09:18:10;10.50;;;5.75;;
2928;SDS011;1474;51.460;7.150;2023-04-07T09:23:28;11.13;;;5.53;;
2928;SDS011;1474;51.460;7.150;2023-04-07T09:25:54;13.10;;;6.03;;
2928;SDS011;1474;51.460;7.150;2023-04-07T09:28:20;13.63;;;5.97;;
2928;SDS011;1474;51.460;7.150;2023-04-07T09:30:53;10.23;;;5.78;;
2928;SDS011;1474;51.460;7.150;2023-04-07T09:33:28;9.95;;;5.40;;
2928;SDS011;1474;51.460;7.150;2023-04-07T09:35:54;10.07;;;5.80;;
2928;SDS011;1474;51.460;7.150;2023-04-07T09:38:20;10.52;;;5.65;;
2928;SDS011;1474;51.460;7.150;2023-04-07T09:40:46;11.07;;;6.10;;
2928;SDS011;1474;51.460;7.150;2023-04-07T09:43:17;11.32;;;6.22;;
2928;SDS011;1474;51.460;7.150;2023-04-07T09:45:43;9.70;;;6.22;;
2928;SDS011;1474;51.460;7.150;2023-04-07T09:48:19;8.63;;;5.18;;
2928;SDS011;1474;51.460;7.150;2023-04-07T09:50:45;10.02;;;6.15;;
2928;SDS011;1474;51.460;7.150;2023-04-07T09:53:15;9.23;;;5.25;;
2928;SDS011;1474;51.460;7.150;2023-04-07T09:55:43;8.52;;;5.47;;
2928;SDS011;1474;51.460;7.150;2023-04-07T09:58:13;9.27;;;5.20;;
2928;SDS011;1474;51.460;7.150;2023-04-07T10:00:39;9.00;;;5.25;;
2928;SDS011;1474;51.460;7.150;2023-04-07T10:03:06;9.23;;;5.80;;
2928;SDS011;1474;51.460;7.150;2023-04-07T10:05:32;6.72;;;5.35;;
2928;SDS011;1474;51.460;7.150;2023-04-07T10:07:59;11.68;;;4.63;;
2928;SDS011;1474;51.460;7.150;2023-04-07T10:10:26;9.43;;;4.82;;
2928;SDS011;1474;51.460;7.150;2023-04-07T10:12:52;6.03;;;4.32;;
2928;SDS011;1474;51.460;7.150;2023-04-07T10:15:21;10.25;;;4.57;;
2928;SDS011;1474;51.460;7.150;2023-04-07T10:17:47;8.38;;;4.78;;
2928;SDS011;1474;51.460;7.150;2023-04-07T10:20:15;7.85;;;4.50;;
2928;SDS011;1474;51.460;7.150;2023-04-07T10:22:42;8.38;;;4.43;;
2928;SDS011;1474;51.460;7.150;2023-04-07T10:25:11;7.43;;;4.30;;
2928;SDS011;1474;51.460;7.150;2023-04-07T10:30:25;9.35;;;5.18;;
2928;SDS011;1474;51.460;7.150;2023-04-07T10:32:53;8.85;;;4.93;;
2928;SDS011;1474;51.460;7.150;2023-04-07T10:35:19;6.85;;;5.05;;
2928;SDS011;1474;51.460;7.150;2023-04-07T10:40:35;7.45;;;3.88;;
2928;SDS011;1474;51.460;7.150;2023-04-07T10:43:01;6.07;;;4.10;;
2928;SDS011;1474;51.460;7.150;2023-04-07T10:48:18;5.80;;;3.70;;
2928;SDS011;1474;51.460;7.150;2023-04-07T10:50:44;7.03;;;3.90;;
2928;SDS011;1474;51.460;7.150;2023-04-07T10:53:11;6.82;;;3.60;;
2928;SDS011;1474;51.460;7.150;2023-04-07T10:55:39;7.25;;;4.20;;
2928;SDS011;1474;51.460;7.150;2023-04-07T10:58:15;6.05;;;3.58;;
2928;SDS011;1474;51.460;7.150;2023-04-07T11:03:33;4.22;;;2.67;;
2928;SDS011;1474;51.460;7.150;2023-04-07T11:08:40;6.07;;;3.60;;
2928;SDS011;1474;51.460;7.150;2023-04-07T11:11:09;7.13;;;4.35;;
2928;SDS011;1474;51.460;7.150;2023-04-07T11:13:42;8.48;;;4.00;;
2928;SDS011;1474;51.460;7.150;2023-04-07T11:16:10;6.45;;;4.20;;
2928;SDS011;1474;51.460;7.150;2023-04-07T11:18:37;7.93;;;4.72;;
2928;SDS011;1474;51.460;7.150;2023-04-07T11:21:04;8.13;;;5.47;;
2928;SDS011;1474;51.460;7.150;2023-04-07T11:23:37;7.30;;;4.60;;
2928;SDS011;1474;51.460;7.150;2023-04-07T11:26:04;5.40;;;3.50;;
2928;SDS011;1474;51.460;7.150;2023-04-07T11:28:30;4.38;;;2.08;;
2928;SDS011;1474;51.460;7.150;2023-04-07T11:30:57;4.55;;;2.42;;
2928;SDS011;1474;51.460;7.150;2023-04-07T11:33:28;4.95;;;2.50;;
2928;SDS011;1474;51.460;7.150;2023-04-07T11:35:58;4.43;;;2.88;;
2928;SDS011;1474;51.460;7.150;2023-04-07T11:40:53;5.65;;;3.30;;
2928;SDS011;1474;51.460;7.150;2023-04-07T11:43:21;4.85;;;2.92;;
2928;SDS011;1474;51.460;7.150;2023-04-07T11:46:07;6.47;;;3.00;;
2928;SDS011;1474;51.460;7.150;2023-04-07T11:48:38;5.60;;;3.08;;
2928;SDS011;1474;51.460;7.150;2023-04-07T11:51:05;6.80;;;3.88;;
2928;SDS011;1474;51.460;7.150;2023-04-07T11:53:32;5.20;;;3.28;;
2928;SDS011;1474;51.460;7.150;2023-04-07T11:56:08;6.13;;;3.47;;
2928;SDS011;1474;51.460;7.150;2023-04-07T11:58:45;4.30;;;2.95;;
2928;SDS011;1474;51.460;7.150;2023-04-07T12:01:14;4.47;;;2.40;;
2928;SDS011;1474;51.460;7.150;2023-04-07T12:03:53;5.80;;;3.17;;
2928;SDS011;1474;51.460;7.150;2023-04-07T12:06:30;5.82;;;3.25;;
2928;SDS011;1474;51.460;7.150;2023-04-07T12:08:58;7.25;;;3.45;;
2928;SDS011;1474;51.460;7.150;2023-04-07T12:11:25;6.13;;;3.50;;
2928;SDS011;1474;51.460;7.150;2023-04-07T12:13:51;7.43;;;3.08;;
2928;SDS011;1474;51.460;7.150;2023-04-07T12:16:19;5.07;;;3.20;;
2928;SDS011;1474;51.460;7.150;2023-04-07T12:18:46;5.80;;;3.17;;
2928;SDS011;1474;51.460;7.150;2023-04-07T12:21:11;5.35;;;2.95;;
2928;SDS011;1474;51.460;7.150;2023-04-07T12:23:37;4.63;;;2.72;;
2928;SDS011;1474;51.460;7.150;2023-04-07T12:26:03;5.22;;;2.22;;
2928;SDS011;1474;51.460;7.150;2023-04-07T12:28:28;6.63;;;3.65;;
2928;SDS011;1474;51.460;7.150;2023-04-07T12:30:54;6.35;;;3.53;;
2928;SDS011;1474;51.460;7.150;2023-04-07T12:33:20;4.95;;;4.03;;
2928;SDS011;1474;51.460;7.150;2023-04-07T12:35:46;4.68;;;4.07;;
2928;SDS011;1474;51.460;7.150;2023-04-07T12:38:11;7.00;;;4.30;;
2928;SDS011;1474;51.460;7.150;2023-04-07T12:40:37;6.10;;;4.65;;
2928;SDS011;1474;51.460;7.150;2023-04-07T12:43:04;7.97;;;4.75;;
2928;SDS011;1474;51.460;7.150;2023-04-07T12:45:30;8.77;;;5.45;;
2928;SDS011;1474;51.460;7.150;2023-04-07T12:47:56;10.27;;;6.28;;
2928;SDS011;1474;51.460;7.150;2023-04-07T12:50:22;10.25;;;6.07;;
2928;SDS011;1474;51.460;7.150;2023-04-07T12:52:49;9.88;;;5.75;;
2928;SDS011;1474;51.460;7.150;2023-04-07T12:55:19;10.10;;;6.67;;
2928;SDS011;1474;51.460;7.150;2023-04-07T12:57:44;12.98;;;6.28;;
2928;SDS011;1474;51.460;7.150;2023-04-07T13:00:11;7.43;;;5.32;;
2928;SDS011;1474;51.460;7.150;2023-04-07T13:02:38;7.88;;;4.97;;
2928;SDS011;1474;51.460;7.150;2023-04-07T13:05:04;6.93;;;5.13;;
2928;SDS011;1474;51.460;7.150;2023-04-07T13:07:30;7.88;;;5.43;;
2928;SDS011;1474;51.460;7.150;2023-04-07T13:09:55;9.27;;;5.82;;
2928;SDS011;1474;51.460;7.150;2023-04-07T13:12:21;7.40;;;5.15;;
2928;SDS011;1474;51.460;7.150;2023-04-07T13:17:21;7.13;;;4.60;;
2928;SDS011;1474;51.460;7.150;2023-04-07T13:19:46;6.82;;;4.45;;
2928;SDS011;1474;51.460;7.150;2023-04-07T13:22:12;7.10;;;5.47;;
2928;SDS011;1474;51.460;7.150;2023-04-07T13:24:38;7.70;;;4.78;;
2928;SDS011;1474;51.460;7.150;2023-04-07T13:27:04;5.90;;;4.88;;
2928;SDS011;1474;51.460;7.150;2023-04-07T13:29:30;6.63;;;4.93;;
2928;SDS011;1474;51.460;7.150;2023-04-07T13:34:31;7.18;;;4.70;;
2928;SDS011;1474;51.460;7.150;2023-04-07T13:36:59;5.13;;;4.07;;
2928;SDS011;1474;51.460;7.150;2023-04-07T13:39:26;5.70;;;4.10;;
2928;SDS011;1474;51.460;7.150;2023-04-07T13:41:52;5.18;;;3.72;;
2928;SDS011;1474;51.460;7.150;2023-04-07T13:44:18;4.93;;;3.75;;
2928;SDS011;1474;51.460;7.150;2023-04-07T13:46:43;5.40;;;3.63;;
2928;SDS011;1474;51.460;7.150;2023-04-07T13:49:09;5.60;;;4.72;;
2928;SDS011;1474;51.460;7.150;2023-04-07T13:51:34;6.10;;;4.13;;
2928;SDS011;1474;51.460;7.150;2023-04-07T13:54:00;6.22;;;4.75;;
2928;SDS011;1474;51.460;7.150;2023-04-07T13:56:26;7.32;;;5.00;;
2928;SDS011;1474;51.460;7.150;2023-04-07T13:58:51;5.93;;;4.10;;
2928;SDS011;1474;51.460;7.150;2023-04-07T14:01:17;4.32;;;3.42;;
2928;SDS011;1474;51.460;7.150;2023-04-07T14:03:43;4.25;;;3.75;;
2928;SDS011;1474;51.460;7.150;2023-04-07T14:06:09;3.95;;;3.55;;
2928;SDS011;1474;51.460;7.150;2023-04-07T14:08:35;4.35;;;3.25;;
2928;SDS011;1474;51.460;7.150;2023-04-07T14:11:01;3.47;;;2.83;;
2928;SDS011;1474;51.460;7.150;2023-04-07T14:13:26;3.88;;;3.33;;
2928;SDS011;1474;51.460;7.150;2023-04-07T14:15:52;5.60;;;3.97;;
2928;SDS011;1474;51.460;7.150;2023-04-07T14:18:18;3.75;;;3.45;;
2928;SDS011;1474;51.460;7.150;2023-04-07T14:20:44;4.65;;;3.25;;
2928;SDS011;1474;51.460;7.150;2023-04-07T14:23:10;4.72;;;3.17;;
2928;SDS011;1474;51.460;7.150;2023-04-07T14:25:36;3.60;;;2.72;;
2928;SDS011;1474;51.460;7.150;2023-04-07T14:28:02;3.63;;;2.80;;
2928;SDS011;1474;51.460;7.150;2023-04-07T14:30:27;3.78;;;2.88;;
2928;SDS011;1474;51.460;7.150;2023-04-07T14:32:54;3.42;;;2.63;;
2928;SDS011;1474;51.460;7.150;2023-04-07T14:35:20;5.10;;;3.45;;
2928;SDS011;1474;51.460;7.150;2023-04-07T14:37:46;5.07;;;3.65;;
2928;SDS011;1474;51.460;7.150;2023-04-07T14:40:12;3.45;;;3.15;;
2928;SDS011;1474;51.460;7.150;2023-04-07T14:42:37;4.18;;;3.40;;
2928;SDS011;1474;51.460;7.150;2023-04-07T14:45:04;4.15;;;2.70;;
2928;SDS011;1474;51.460;7.150;2023-04-07T14:47:30;4.85;;;3.20;;
2928;SDS011;1474;51.460;7.150;2023-04-07T14:49:55;4.13;;;2.78;;
2928;SDS011;1474;51.460;7.150;2023-04-07T14:52:21;3.33;;;2.72;;
2928;SDS011;1474;51.460;7.150;2023-04-07T14:54:46;3.28;;;2.83;;
2928;SDS011;1474;51.460;7.150;2023-04-07T14:57:12;3.35;;;3.05;;
2928;SDS011;1474;51.460;7.150;2023-04-07T14:59:38;3.70;;;3.40;;
2928;SDS011;1474;51.460;7.150;2023-04-07T15:02:03;5.40;;;3.65;;
2928;SDS011;1474;51.460;7.150;2023-04-07T15:04:29;4.15;;;3.05;;
2928;SDS011;1474;51.460;7.150;2023-04-07T15:06:55;4.68;;;3.30;;
2928;SDS011;1474;51.460;7.150;2023-04-07T15:09:21;3.58;;;2.90;;
2928;SDS011;1474;51.460;7.150;2023-04-07T15:11:47;3.40;;;3.10;;
2928;SDS011;1474;51.460;7.150;2023-04-07T15:14:12;3.97;;;3.42;;
2928;SDS011;1474;51.460;7.150;2023-04-07T15:16:38;3.35;;;2.88;;
2928;SDS011;1474;51.460;7.150;2023-04-07T15:19:04;4.30;;;3.25;;
2928;SDS011;1474;51.460;7.150;2023-04-07T15:21:30;3.80;;;3.50;;
2928;SDS011;1474;51.460;7.150;2023-04-07T15:23:56;3.83;;;3.42;;
2928;SDS011;1474;51.460;7.150;2023-04-07T15:26:21;4.60;;;3.72;;
2928;SDS011;1474;51.460;7.150;2023-04-07T15:28:47;3.65;;;3.30;;
2928;SDS011;1474;51.460;7.150;2023-04-07T15:31:13;5.03;;;3.55;;
2928;SDS011;1474;51.460;7.150;2023-04-07T15:33:39;6.63;;;4.18;;
2928;SDS011;1474;51.460;7.150;2023-04-07T15:36:05;4.35;;;3.15;;